Latest Coastal Weather Observations for Sydney Harbour

IDN60701

Issued at 8:12 pm EST Wednesday 28 September 2016 (issued every 10 minutes, with the page automatically refreshed every 10 minutes)

About coastal observations | Map of coastal stations | Coastal observations for NSW | Marine services | Other Formats
Station Details ID: 066196 Name: WEDDING CAKE WEST Lat: -33.84 Lon: 151.26 Height: 6.0 m
Data from the previous 72 hours. | See also: Recent months at Sydney Harbour
Date/Time
EST
Temp
°C
Wind Pressure Rain since
9am
mm
Weather Cloud Vis
km
Sea
Height
m
Swell
Dir  Spd
kts
Gust
kts
hPa Trend Height
m
Period
s
Dir
28/08:00pm 18.3 NE 15 18 - - - - - - - - - -
28/07:30pm 18.3 NE 13 15 - - - - - - - - - -
28/07:00pm 18.4 NE 13 16 - - - - - - - - - -
28/06:30pm 18.2 NE 12 15 - - - - - - - - - -
28/06:00pm 18.2 ENE 12 14 - - - - - - - - - -
28/05:30pm 18.1 ENE 11 14 - - - - - - - - - -
28/05:00pm 18.1 ENE 10 12 - - - - - - - - - -
28/04:30pm 18.3 ENE 9 13 - - - - - - - - - -
28/04:00pm 18.2 ENE 9 11 - - - - - - - - - -
28/03:30pm 18.4 E 9 11 - - - - - - - - - -
28/03:00pm 18.6 E 8 11 - - - - - - - - - -
28/02:30pm 18.5 ESE 9 13 - - - - - - - - - -
28/02:00pm 18.3 E 9 11 - - - - - - - - - -
28/01:30pm 18.3 ESE 9 12 - - - - - - - - - -
28/01:00pm 18.1 SE 9 13 - - - - - - - - - -
28/12:30pm 17.8 ESE 9 12 - - - - - - - - - -
28/12:00pm 17.8 SE 10 13 - - - - - - - - - -
28/11:30am 17.5 SE 10 13 - - - - - - - - - -
28/11:00am 17.4 SSE 7 9 - - - - - - - - - -
28/10:30am 16.7 S 7 11 - - - - - - - - - -
28/10:00am 16.0 WSW 6 7 - - - - - - - - - -
28/09:30am 15.2 WSW 8 11 - - - - - - - - - -
28/09:00am 14.2 WSW 10 13 - - - - - - - - - -
28/08:30am 13.6 WSW 12 14 - - - - - - - - - -
28/08:00am 12.9 WSW 14 19 - - - - - - - - - -
28/07:30am 12.5 W 16 21 - - - - - - - - - -
28/07:00am 12.0 W 13 16 - - - - - - - - - -
28/06:30am 12.0 WSW 14 16 - - - - - - - - - -
28/06:00am 12.3 WSW 11 15 - - - - - - - - - -
28/05:30am 12.1 WSW 12 16 - - - - - - - - - -
28/05:00am 12.1 WSW 12 15 - - - - - - - - - -
28/04:30am 12.1 WSW 12 15 - - - - - - - - - -
28/04:00am 12.3 WSW 10 14 - - - - - - - - - -
28/03:30am 12.4 W 10 13 - - - - - - - - - -
28/03:00am 12.5 W 13 16 - - - - - - - - - -
28/02:30am 12.8 WSW 10 15 - - - - - - - - - -
28/02:00am 13.1 WSW 11 17 - - - - - - - - - -
28/01:30am 13.3 WSW 11 14 - - - - - - - - - -
28/01:00am 13.2 WSW 11 15 - - - - - - - - - -
28/12:30am 13.6 WSW 9 12 - - - - - - - - - -
28/12:00am 14.2 WSW 13 17 - - - - - - - - - -
 
Date/Time
EST
Temp
°C
Wind Pressure Rain since
9am
mm
Weather Cloud Vis
km
Sea
Height
m
Swell
Dir  Spd
kts
Gust
kts
hPa Trend Height
m
Period
s
Dir
27/11:30pm 14.4 WSW 10 15 - - - - - - - - - -
27/11:00pm 14.8 WSW 13 19 - - - - - - - - - -
27/10:30pm 15.0 WSW 11 15 - - - - - - - - - -
27/10:00pm 15.1 WSW 14 18 - - - - - - - - - -
27/09:30pm 15.4 WSW 12 18 - - - - - - - - - -
27/09:00pm 15.7 WSW 14 17 - - - - - - - - - -
27/08:30pm 15.9 WSW 13 19 - - - - - - - - - -
27/08:00pm 16.2 WSW 13 19 - - - - - - - - - -
27/07:30pm 16.5 WSW 13 21 - - - - - - - - - -
27/07:00pm 16.9 WSW 16 20 - - - - - - - - - -
27/06:34pm 17.2 WSW 16 27 - - - - - - - - - -
27/06:30pm 17.2 WSW 18 26 - - - - - - - - - -
27/06:10pm 17.4 SW 20 30 - - - - - - - - - -
27/06:00pm 17.5 WSW 21 30 - - - - - - - - - -
27/05:45pm 17.7 SW 23 33 - - - - - - - - - -
27/05:30pm 17.8 WSW 26 34 - - - - - - - - - -
27/05:00pm 18.2 WSW 24 35 - - - - - - - - - -
27/04:30pm 18.5 SW 30 40 - - - - - - - - - -
27/04:09pm 18.7 SW 31 43 - - - - - - - - - -
27/04:00pm 19.1 SW 27 34 - - - - - - - - - -
27/03:30pm 19.5 WSW 25 32 - - - - - - - - - -
27/03:00pm 20.0 WSW 23 30 - - - - - - - - - -
27/02:30pm 20.3 WSW 25 32 - - - - - - - - - -
27/02:10pm 20.5 SW 27 37 - - - - - - - - - -
27/02:00pm 20.6 WSW 24 35 - - - - - - - - - -
27/01:59pm 20.6 WSW 24 35 - - - - - - - - - -
27/01:30pm 21.1 W 25 36 - - - - - - - - - -
27/01:19pm 21.4 W 19 31 - - - - - - - - - -
27/01:00pm 21.1 WSW 17 24 - - - - - - - - - -
27/12:32pm 21.4 W 18 28 - - - - - - - - - -
27/12:30pm 21.3 W 19 28 - - - - - - - - - -
27/12:00pm 20.5 WSW 11 19 - - - - - - - - - -
27/11:30am 20.3 - 1 4 - - - - - - - - - -
27/11:00am 18.8 N 10 13 - - - - - - - - - -
27/10:30am 18.4 NNW 11 16 - - - - - - - - - -
27/10:00am 17.6 N 12 16 - - - - - - - - - -
27/09:30am 17.1 NNW 14 17 - - - - - - - - - -
27/09:00am 16.5 NNW 14 17 - - - - - - - - - -
27/08:30am 15.7 NNW 14 18 - - - - - - - - - -
27/08:00am 14.6 NNW 13 18 - - - - - - - - - -
27/07:30am 14.0 NNW 14 18 - - - - - - - - - -
27/07:00am 13.7 NNW 13 16 - - - - - - - - - -
27/06:30am 13.7 NNW 12 17 - - - - - - - - - -
27/06:00am 13.7 NNW 11 15 - - - - - - - - - -
27/05:30am 13.2 NNW 11 17 - - - - - - - - - -
27/05:00am 12.8 NNW 11 15 - - - - - - - - - -
27/04:30am 12.8 NW 5 8 - - - - - - - - - -
27/04:00am 13.3 NNW 9 12 - - - - - - - - - -
27/03:30am 13.0 W 5 7 - - - - - - - - - -
27/03:00am 13.3 W 6 9 - - - - - - - - - -
27/02:30am 13.5 WNW 11 13 - - - - - - - - - -
27/02:00am 13.6 WNW 10 12 - - - - - - - - - -
27/01:30am 14.3 WNW 15 18 - - - - - - - - - -
27/01:00am 14.6 W 9 13 - - - - - - - - - -
27/12:30am 14.7 W 11 14 - - - - - - - - - -
27/12:00am 15.3 W 10 14 - - - - - - - - - -
 
Date/Time
EST
Temp
°C
Wind Pressure Rain since
9am
mm
Weather Cloud Vis
km
Sea
Height
m
Swell
Dir  Spd
kts
Gust
kts
hPa Trend Height
m
Period
s
Dir
26/11:30pm 15.3 W 10 13 - - - - - - - - - -
26/11:00pm 15.5 W 10 16 - - - - - - - - - -
26/10:30pm 15.6 W 10 13 - - - - - - - - - -
26/10:00pm 15.8 W 10 13 - - - - - - - - - -
26/09:30pm 16.1 W 8 11 - - - - - - - - - -
26/09:00pm 16.5 WSW 9 13 - - - - - - - - - -
26/08:30pm 16.9 WSW 11 16 - - - - - - - - - -
26/08:00pm 16.3 WNW 6 8 - - - - - - - - - -
26/07:30pm 16.4 WSW 6 8 - - - - - - - - - -
26/07:00pm 16.7 SSW 7 8 - - - - - - - - - -
26/06:30pm 16.9 S 9 11 - - - - - - - - - -
26/06:00pm 16.9 S 9 10 - - - - - - - - - -
26/05:30pm 17.0 S 8 11 - - - - - - - - - -
26/05:00pm 16.9 S 11 14 - - - - - - - - - -
26/04:30pm 18.1 SE 8 11 - - - - - - - - - -
26/04:00pm 18.0 SE 9 13 - - - - - - - - - -
26/03:30pm 17.9 E 9 11 - - - - - - - - - -
26/03:00pm 18.3 ESE 8 10 - - - - - - - - - -
26/02:30pm 18.0 SE 8 10 - - - - - - - - - -
26/02:00pm 17.7 ESE 9 14 - - - - - - - - - -
26/01:30pm 17.9 SE 10 14 - - - - - - - - - -
26/01:00pm 18.0 SSW 8 12 - - - - - - - - - -
26/12:30pm 17.8 WSW 6 12 - - - - - - - - - -
26/12:00pm 17.1 SW 9 12 - - - - - - - - - -
26/11:30am 17.0 WSW 7 10 - - - - - - - - - -
26/11:00am 16.5 SW 12 15 - - - - - - - - - -
26/10:30am 16.1 WSW 12 16 - - - - - - - - - -
26/10:00am 15.7 WSW 13 19 - - - - - - - - - -
26/09:30am 15.4 WSW 16 21 - - - - - - - - - -
26/09:00am 15.0 WSW 19 24 - - - - - - - - - -
26/08:30am 14.7 WSW 16 21 - - - - - - - - - -
26/08:00am 14.1 WSW 20 26 - - - - - - - - - -
26/07:30am 14.3 SW 18 23 - - - - - - - - - -
26/07:00am 14.0 SW 21 25 - - - - - - - - - -
26/06:30am 13.6 SW 18 23 - - - - - - - - - -
26/06:00am 13.6 SW 16 19 - - - - - - - - - -
26/05:30am 13.8 SW 13 16 - - - - - - - - - -
26/05:00am 14.0 SW 13 18 - - - - - - - - - -
26/04:30am 13.9 SW 12 14 - - - - - - - - - -
26/04:00am 14.2 SW 11 14 - - - - - - - - - -
26/03:30am 14.3 WSW 10 15 - - - - - - - - - -
26/03:00am 14.6 SW 10 13 - - - - - - - - - -
26/02:30am 14.7 SW 11 14 - - - - - - - - - -
26/02:00am 14.5 SW 10 13 - - - - - - - - - -
26/01:30am 14.6 SW 10 13 - - - - - - - - - -
26/01:00am 14.7 SSW 12 14 - - - - - - - - - -
26/12:30am 15.0 WSW 11 15 - - - - - - - - - -
26/12:00am 15.3 WSW 12 16 - - - - - - - - - -
 
Date/Time
EST
Temp
°C
Wind Pressure Rain since
9am
mm
Weather Cloud Vis
km
Sea
Height
m
Swell
Dir  Spd
kts
Gust
kts
hPa Trend Height
m
Period
s
Dir
25/11:30pm 15.2 W 11 16 - - - - - - - - - -
25/11:00pm 15.4 W 11 14 - - - - - - - - - -
25/10:30pm 15.4 W 8 10 - - - - - - - - - -
25/10:00pm 15.6 WSW 7 9 - - - - - - - - - -
25/09:30pm 16.2 WSW 9 11 - - - - - - - - - -
25/09:00pm 16.4 WSW 10 12 - - - - - - - - - -
25/08:30pm 16.3 WSW 7 10 - - - - - - - - - -

Other Formats:

Comma delimited format used in spreadsheet applications
http://www.bom.gov.au/fwo/IDN60701/IDN60701.95766.axf

JavaScript Object Notation format (JSON) in row-major order
http://www.bom.gov.au/fwo/IDN60701/IDN60701.95766.json